Time;durP1;ratioP1;P1;durP2;ratioP2;P2;SDS_P1;SDS_P2;PMS_P1;PMS_P2;Temp;Humidity;BMP_temperature;BMP_pressure;BME280_temperature;BME280_humidity;BME280_pressure;Samples;Min_cycle;Max_cycle;Signal;HPM_P1;HPM_P2
2024/02/02 00:03:44;;;;;;;16.20;3.80;;;;;;;2.30;82.12;100376.63;216674;1260;139349;-70
2024/02/02 00:08:51;;;;;;;11.50;4.70;;;;;;;2.34;82.25;100381.33;216570;1263;140154;-70
2024/02/02 00:13:55;;;;;;;11.20;2.80;;;;;;;2.37;82.37;100389.42;216616;1260;140147;-66
2024/02/02 00:18:59;;;;;;;5.60;2.60;;;;;;;2.40;82.36;100391.27;217767;1259;140797;-67
2024/02/02 00:24:05;;;;;;;12.30;3.30;;;;;;;2.42;82.34;100401.20;218487;1259;141430;-67
2024/02/02 00:29:09;;;;;;;14.70;6.10;;;;;;;2.44;82.39;100396.95;218127;1259;140532;-65
2024/02/02 00:34:16;;;;;;;15.40;3.70;;;;;;;2.48;82.62;100398.38;218288;1259;140367;-65
2024/02/02 00:39:22;;;;;;;12.10;3.80;;;;;;;2.54;82.79;100398.23;219488;1259;140897;-67
2024/02/02 00:44:26;;;;;;;12.20;4.10;;;;;;;2.58;82.75;100398.70;219156;1259;140309;-68
2024/02/02 00:49:30;;;;;;;9.50;2.40;;;;;;;2.60;82.70;100404.95;219466;1259;140572;-66
2024/02/02 00:54:34;;;;;;;11.30;2.90;;;;;;;2.63;82.60;100405.21;216701;1262;140095;-66
2024/02/02 00:59:38;;;;;;;8.80;3.00;;;;;;;2.65;82.56;100407.05;216473;1259;140572;-67
2024/02/02 01:04:42;;;;;;;12.10;4.90;;;;;;;2.65;82.65;100401.16;216663;1260;141619;-68
2024/02/02 01:09:47;;;;;;;8.10;2.90;;;;;;;2.63;82.37;100407.45;217088;1259;140214;-69
2024/02/02 01:14:52;;;;;;;9.00;2.30;;;;;;;2.61;82.52;100413.11;216646;1263;140943;-67
2024/02/02 01:19:56;;;;;;;13.90;3.70;;;;;;;2.59;82.47;100416.17;216316;1262;142586;-67
2024/02/02 01:25:00;;;;;;;14.10;3.00;;;;;;;2.58;82.62;100421.13;216496;1263;141117;-67
2024/02/02 01:30:07;;;;;;;16.20;2.90;;;;;;;2.59;82.51;100423.90;216082;1259;141098;-68
2024/02/02 01:35:12;;;;;;;12.60;3.00;;;;;;;2.62;82.28;100422.02;216907;1259;140091;-66
2024/02/02 01:40:19;;;;;;;9.10;3.70;;;;;;;2.63;82.31;100426.30;216737;1260;140038;-65
2024/02/02 01:45:24;;;;;;;7.90;2.90;;;;;;;2.63;82.15;100434.17;216577;1259;140432;-66
2024/02/02 01:50:30;;;;;;;15.70;3.70;;;;;;;2.64;82.04;100437.06;217481;1259;139803;-68
2024/02/02 01:55:34;;;;;;;8.50;2.30;;;;;;;2.64;82.02;100442.43;216525;1259;140399;-66
2024/02/02 02:00:39;;;;;;;12.30;2.40;;;;;;;2.65;82.00;100451.47;216365;1259;140973;-66
2024/02/02 02:05:43;;;;;;;9.40;3.30;;;;;;;2.66;81.95;100454.73;216875;1263;141597;-67
2024/02/02 02:17:11;;;;;;;12.30;2.50;;;;;;;2.67;81.99;100456.20;216318;1259;220971;-66
2024/02/02 02:22:16;;;;;;;11.40;3.80;;;;;;;2.68;81.77;100459.23;217709;1259;140133;-67
2024/02/02 02:27:21;;;;;;;11.00;2.50;;;;;;;2.69;81.89;100460.72;216681;1259;141902;-66
2024/02/02 02:32:26;;;;;;;9.70;3.00;;;;;;;2.70;81.85;100449.69;219320;1259;141456;-67
2024/02/02 02:37:51;;;;;;;11.00;3.40;;;;;;;2.71;81.69;100454.17;219555;1259;140278;-67
2024/02/02 02:42:56;;;;;;;8.30;4.60;;;;;;;2.75;81.61;100451.45;219429;1259;141418;-67
2024/02/02 02:48:02;;;;;;;8.10;2.40;;;;;;;2.79;81.26;100454.00;218030;1259;140305;-66
2024/02/02 02:53:07;;;;;;;6.70;2.30;;;;;;;2.80;81.32;100455.74;216675;1262;140427;-66
2024/02/02 02:58:12;;;;;;;12.10;2.20;;;;;;;2.79;81.57;100455.88;217266;1259;139926;-65
2024/02/02 03:03:17;;;;;;;12.60;2.90;;;;;;;2.76;81.37;100453.91;217071;1259;140926;-67
2024/02/02 03:08:22;;;;;;;10.80;4.80;;;;;;;2.75;81.32;100455.02;217051;1259;140205;-64
2024/02/02 03:13:27;;;;;;;9.70;2.50;;;;;;;2.73;81.40;100459.04;216469;1259;140427;-64
2024/02/02 03:18:32;;;;;;;10.40;3.40;;;;;;;2.69;81.46;100459.98;217962;1259;140510;-64
2024/02/02 03:23:36;;;;;;;12.60;2.70;;;;;;;2.68;81.62;100457.86;216581;1261;140724;-64
2024/02/02 03:28:42;;;;;;;16.70;3.00;;;;;;;2.67;81.64;100465.64;216672;1262;139968;-64
2024/02/02 03:33:47;;;;;;;14.10;5.50;;;;;;;2.67;81.76;100472.89;216506;1259;141435;-65
2024/02/02 03:38:52;;;;;;;12.90;3.00;;;;;;;2.65;82.04;100484.30;216738;1259;142252;-65
2024/02/02 03:43:58;;;;;;;12.90;5.10;;;;;;;2.64;82.43;100496.52;217366;1262;142008;-65
2024/02/02 03:49:05;;;;;;;8.50;2.60;;;;;;;2.63;82.39;100497.84;217277;1259;140028;-65
2024/02/02 03:54:11;;;;;;;10.10;2.40;;;;;;;2.64;82.38;100500.59;217584;1262;143233;-65
2024/02/02 03:59:17;;;;;;;13.90;2.70;;;;;;;2.63;82.40;100505.89;217974;1259;140826;-65
2024/02/02 04:04:21;;;;;;;21.20;6.20;;;;;;;2.63;82.50;100510.63;216653;1259;140973;-68
2024/02/02 04:09:25;;;;;;;6.70;2.00;;;;;;;2.65;82.61;100510.44;219485;1259;141021;-66
2024/02/02 04:14:30;;;;;;;10.00;2.20;;;;;;;2.67;82.51;100514.81;218232;1259;140681;-67
2024/02/02 04:19:34;;;;;;;17.20;3.60;;;;;;;2.67;82.61;100513.77;216542;1259;140245;-65
2024/02/02 04:24:38;;;;;;;14.10;3.50;;;;;;;2.68;82.53;100512.77;219465;1259;141241;-67
2024/02/02 04:29:43;;;;;;;10.20;4.50;;;;;;;2.69;82.59;100523.54;216802;1261;140336;-67
2024/02/02 04:34:48;;;;;;;14.50;3.10;;;;;;;2.70;82.63;100522.33;218168;1259;140483;-66
2024/02/02 04:39:54;;;;;;;9.40;3.10;;;;;;;2.72;82.60;100527.65;216316;1262;141011;-67
2024/02/02 04:44:58;;;;;;;15.90;3.00;;;;;;;2.70;82.71;100529.95;216451;1259;231165;-65
2024/02/02 04:50:03;;;;;;;13.70;4.50;;;;;;;2.67;82.63;100526.86;217145;1259;140844;-66
2024/02/02 04:55:07;;;;;;;8.10;3.90;;;;;;;2.66;82.69;100525.80;216145;1264;212753;-66
2024/02/02 05:00:13;;;;;;;10.40;2.90;;;;;;;2.65;82.88;100525.11;217819;1261;140080;-65
2024/02/02 05:05:17;;;;;;;9.20;2.50;;;;;;;2.65;82.82;100527.45;217094;1263;142819;-66
2024/02/02 05:10:22;;;;;;;23.40;3.70;;;;;;;2.64;82.81;100523.70;216924;1259;159890;-67
2024/02/02 05:15:26;;;;;;;5.30;1.30;;;;;;;2.66;82.72;100527.22;217590;1259;140642;-67
2024/02/02 05:20:31;;;;;;;9.30;2.30;;;;;;;2.65;82.61;100531.16;216447;1259;139925;-66
2024/02/02 05:25:35;;;;;;;5.70;2.70;;;;;;;2.61;82.56;100536.48;216426;1259;140165;-67
2024/02/02 05:30:40;;;;;;;11.30;3.60;;;;;;;2.58;82.63;100536.61;217322;1259;140681;-68
2024/02/02 05:35:45;;;;;;;5.40;2.40;;;;;;;2.58;82.89;100541.88;216571;1262;140136;-67
2024/02/02 05:40:50;;;;;;;12.90;3.00;;;;;;;2.56;82.90;100536.31;217073;1258;139835;-65
2024/02/02 05:45:54;;;;;;;8.30;1.60;;;;;;;2.56;82.63;100542.70;218326;1259;140152;-65
2024/02/02 05:50:59;;;;;;;13.90;2.60;;;;;;;2.55;82.85;100535.02;217459;1259;140514;-65
2024/02/02 05:56:04;;;;;;;13.50;2.60;;;;;;;2.56;82.57;100534.44;216604;1259;140446;-66
2024/02/02 06:01:08;;;;;;;12.60;3.60;;;;;;;2.53;82.81;100542.95;217899;1259;140080;-68
2024/02/02 06:06:15;;;;;;;;;;;;;;;2.52;82.92;100552.16;217760;1259;140290;-68
2024/02/02 06:11:20;;;;;;;10.80;3.10;;;;;;;2.50;82.95;100538.05;216953;1259;126471;-67
2024/02/02 06:16:25;;;;;;;14.30;2.80;;;;;;;2.49;82.82;100543.96;217300;1259;140235;-66
2024/02/02 06:21:31;;;;;;;19.70;3.40;;;;;;;2.46;82.92;100550.58;219327;1259;140324;-67
2024/02/02 06:26:38;;;;;;;8.70;2.00;;;;;;;2.45;82.77;100559.62;219499;1259;140532;-68
2024/02/02 06:31:42;;;;;;;12.20;3.90;;;;;;;2.47;82.81;100567.71;219644;1259;140332;-67
2024/02/02 06:36:46;;;;;;;12.10;3.10;;;;;;;2.48;82.82;100572.48;219526;1259;139690;-67
2024/02/02 06:41:51;;;;;;;24.60;3.30;;;;;;;2.52;82.70;100578.19;218812;1259;141819;-65
2024/02/02 06:46:56;;;;;;;13.10;5.20;;;;;;;2.53;82.68;100574.93;216689;1259;140086;-67
2024/02/02 06:52:17;;;;;;;19.20;5.10;;;;;;;2.54;82.62;100581.31;217778;1259;222942;-68
2024/02/02 06:57:24;;;;;;;9.90;3.50;;;;;;;2.56;82.92;100577.44;216647;1259;141866;-68
2024/02/02 07:02:30;;;;;;;10.60;2.70;;;;;;;2.56;82.77;100578.92;216890;1260;140724;-68
2024/02/02 07:07:35;;;;;;;11.40;5.20;;;;;;;2.53;82.73;100583.12;217361;1259;140444;-68
2024/02/02 07:13:11;;;;;;;17.30;4.00;;;;;;;2.49;82.53;100583.23;216921;1260;140097;-66
2024/02/02 07:18:46;;;;;;;15.20;3.50;;;;;;;2.50;82.81;100585.19;217515;1259;140238;-67
2024/02/02 07:23:50;;;;;;;11.00;3.50;;;;;;;2.55;82.78;100587.27;217896;1259;152007;-68
2024/02/02 07:28:54;;;;;;;11.70;4.30;;;;;;;2.58;82.70;100598.40;217888;1259;140591;-66
2024/02/02 07:34:03;;;;;;;12.40;5.40;;;;;;;2.65;82.92;100599.54;217381;1259;140293;-70
2024/02/02 07:39:19;;;;;;;18.20;3.30;;;;;;;2.69;82.92;100604.81;216489;1260;151891;-70
2024/02/02 07:44:25;;;;;;;10.60;3.40;;;;;;;2.77;82.94;100602.39;216459;1260;140906;-70
2024/02/02 07:49:29;;;;;;;14.10;2.90;;;;;;;2.95;82.93;100601.80;216836;1259;140064;-67
2024/02/02 07:54:34;;;;;;;6.90;3.10;;;;;;;3.01;82.67;100601.48;216808;1259;140055;-68
2024/02/02 07:59:40;;;;;;;12.70;3.30;;;;;;;3.07;82.77;100602.86;218415;1262;140067;-67
2024/02/02 08:04:44;;;;;;;14.70;4.10;;;;;;;3.15;82.71;100605.84;218612;1259;139778;-66
2024/02/02 08:09:48;;;;;;;9.80;3.30;;;;;;;3.21;82.63;100608.67;216853;1262;140271;-67
2024/02/02 08:14:52;;;;;;;16.30;3.80;;;;;;;3.20;82.35;100613.74;219473;1259;140795;-68
2024/02/02 08:19:56;;;;;;;15.50;4.30;;;;;;;3.19;82.37;100610.45;219401;1259;142699;-67
2024/02/02 08:25:01;;;;;;;13.20;3.90;;;;;;;3.22;82.32;100606.93;219421;1259;140027;-67
2024/02/02 08:30:07;;;;;;;10.70;3.80;;;;;;;3.32;82.43;100602.51;219402;1260;140862;-66
2024/02/02 08:35:12;;;;;;;34.00;8.10;;;;;;;3.46;82.39;100606.08;217256;1262;140269;-68
2024/02/02 08:40:26;;;;;;;15.00;4.40;;;;;;;3.59;82.33;100609.42;216590;1258;140301;-69
2024/02/02 08:46:04;;;;;;;15.00;3.60;;;;;;;3.75;82.34;100613.63;217439;1260;140468;-69
2024/02/02 08:51:34;;;;;;;13.40;5.20;;;;;;;3.85;82.21;100611.52;217563;1259;141607;-67
2024/02/02 08:56:39;;;;;;;20.50;3.80;;;;;;;3.98;82.00;100606.86;216594;1263;141170;-67
2024/02/02 09:01:44;;;;;;;16.90;3.70;;;;;;;4.15;81.95;100614.81;216871;1263;140076;-67
2024/02/02 09:06:49;;;;;;;20.10;7.10;;;;;;;4.30;81.66;100601.67;217188;1260;140494;-67
2024/02/02 09:11:54;;;;;;;8.50;3.30;;;;;;;4.38;81.44;100607.04;217561;1259;140557;-68
2024/02/02 09:16:57;;;;;;;14.30;5.00;;;;;;;4.46;81.20;100606.58;217116;1263;139671;-68
2024/02/02 09:22:06;;;;;;;13.10;5.00;;;;;;;4.54;81.25;100614.13;217649;1259;236231;-67
2024/02/02 09:27:32;;;;;;;16.00;3.60;;;;;;;4.60;81.04;100609.47;217696;1259;140453;-68
2024/02/02 09:32:37;;;;;;;10.00;3.30;;;;;;;4.68;81.12;100605.17;216615;1263;141115;-70
2024/02/02 09:38:00;;;;;;;;;;;;;;;4.77;80.85;100601.95;217011;1263;140861;-68
2024/02/02 09:43:31;;;;;;;12.50;3.60;;;;;;;4.92;80.49;100601.54;217141;1259;126202;-69
2024/02/02 09:49:13;;;;;;;14.20;5.20;;;;;;;5.12;80.78;100596.46;216713;1263;142355;-68
2024/02/02 09:54:58;;;;;;;18.10;3.80;;;;;;;5.32;80.31;100602.65;216854;1262;141035;-72
2024/02/02 10:00:16;;;;;;;13.90;4.60;;;;;;;5.41;79.78;100598.24;217414;1263;139834;-70
2024/02/02 10:05:52;;;;;;;7.50;3.00;;;;;;;5.41;79.26;100597.75;217154;1260;140036;-69
2024/02/02 10:11:19;;;;;;;14.10;5.10;;;;;;;5.50;79.14;100590.16;216864;1265;140168;-72
2024/02/02 10:16:30;;;;;;;19.20;6.10;;;;;;;5.54;78.66;100586.04;216836;1263;140076;-72
2024/02/02 10:22:18;;;;;;;10.50;4.30;;;;;;;5.52;78.65;100576.41;217823;1262;140407;-71
2024/02/02 10:27:48;;;;;;;14.20;4.50;;;;;;;5.52;78.88;100570.92;216613;1263;140485;-74
2024/02/02 10:33:22;;;;;;;7.10;3.30;;;;;;;5.55;78.68;100564.38;216513;1262;140542;-71
2024/02/02 10:38:32;;;;;;;12.60;5.30;;;;;;;5.62;78.71;100561.98;216825;1260;139901;-70
2024/02/02 10:43:56;;;;;;;15.10;5.30;;;;;;;5.57;78.25;100555.52;217796;1260;140070;-74
2024/02/02 10:49:38;;;;;;;41.60;10.40;;;;;;;5.70;78.23;100557.64;217092;1263;140517;-73
2024/02/02 10:55:07;;;;;;;19.00;4.90;;;;;;;5.99;78.42;100548.55;216960;1260;140078;-76
2024/02/02 11:00:23;;;;;;;18.60;4.80;;;;;;;6.17;78.07;100545.30;217149;1259;140174;-73
2024/02/02 11:05:37;;;;;;;14.60;4.30;;;;;;;6.18;77.53;100543.04;216586;1260;140081;-72
2024/02/02 11:10:57;;;;;;;14.50;5.50;;;;;;;6.30;77.76;100546.08;216752;1263;140817;-71
2024/02/02 11:16:10;;;;;;;14.10;6.20;;;;;;;6.38;77.53;100544.42;216632;1264;141280;-70
2024/02/02 11:21:32;;;;;;;10.30;4.80;;;;;;;6.41;77.22;100543.98;217304;1259;139965;-67
2024/02/02 11:26:44;;;;;;;16.00;4.80;;;;;;;6.40;76.85;100546.55;216975;1263;141372;-76
2024/02/02 11:31:52;;;;;;;10.20;4.10;;;;;;;6.36;77.06;100534.33;216590;1260;139920;-71
2024/02/02 11:37:10;;;;;;;8.60;5.10;;;;;;;6.44;76.71;100521.97;217165;1259;141001;-70
2024/02/02 11:42:16;;;;;;;5.90;3.20;;;;;;;6.45;76.63;100504.78;216547;1263;140911;-66
2024/02/02 11:47:24;;;;;;;16.20;5.20;;;;;;;6.40;76.48;100497.42;216695;1259;139790;-66
2024/02/02 11:52:34;;;;;;;18.50;6.70;;;;;;;6.35;76.40;100498.14;216662;1257;140352;-68
2024/02/02 11:57:49;;;;;;;14.10;7.40;;;;;;;6.27;76.37;100493.50;217220;1260;140641;-68
2024/02/02 12:03:10;;;;;;;13.30;6.30;;;;;;;6.29;76.73;100484.30;218015;1261;140631;-69
2024/02/02 12:08:43;;;;;;;18.50;6.10;;;;;;;6.23;76.31;100485.59;218382;1262;141109;-68
2024/02/02 12:13:50;;;;;;;13.40;6.70;;;;;;;6.05;76.08;100478.92;218581;1262;140733;-68
2024/02/02 12:18:53;;;;;;;13.80;7.10;;;;;;;5.94;76.11;100475.25;216666;1260;140724;-68
2024/02/02 12:23:58;;;;;;;15.00;6.80;;;;;;;5.90;76.62;100466.08;217897;1262;140107;-67
2024/02/02 12:29:03;;;;;;;14.80;7.70;;;;;;;5.86;76.52;100458.71;216553;1263;140076;-67
2024/02/02 12:34:07;;;;;;;12.80;7.30;;;;;;;5.87;76.33;100433.94;216479;1261;141296;-69
2024/02/02 12:39:11;;;;;;;16.60;8.80;;;;;;;5.95;76.49;100422.14;216725;1262;140179;-69
2024/02/02 12:44:14;;;;;;;16.60;8.70;;;;;;;6.05;76.49;100414.96;216797;1262;151510;-70
2024/02/02 12:49:21;;;;;;;18.20;7.80;;;;;;;6.07;76.37;100410.75;216932;1259;139921;-71
2024/02/02 12:54:29;;;;;;;20.10;9.30;;;;;;;6.06;76.56;100401.98;216483;1261;140003;-68
2024/02/02 12:59:34;;;;;;;11.20;7.90;;;;;;;6.07;77.09;100393.36;216578;1260;139924;-68
2024/02/02 13:04:38;;;;;;;22.70;9.10;;;;;;;6.10;77.02;100387.73;216475;1262;139775;-68
2024/02/02 13:09:50;;;;;;;15.70;6.30;;;;;;;6.05;76.91;100389.02;217191;1260;142157;-69
2024/02/02 13:15:12;;;;;;;9.30;5.30;;;;;;;6.07;77.08;100382.77;216672;1263;140957;-69
2024/02/02 13:20:19;;;;;;;8.60;5.30;;;;;;;6.04;76.99;100373.42;216480;1263;140125;-70
2024/02/02 13:25:25;;;;;;;10.20;6.30;;;;;;;5.94;76.76;100383.09;216826;1263;139919;-70
2024/02/02 13:30:32;;;;;;;8.60;4.80;;;;;;;5.85;76.57;100383.32;217830;1263;141216;-69
2024/02/02 13:35:39;;;;;;;14.40;5.00;;;;;;;5.77;76.74;100381.70;216865;1260;139949;-68
2024/02/02 13:40:46;;;;;;;9.80;4.20;;;;;;;5.72;77.03;100378.77;216777;1261;140918;-69
2024/02/02 13:45:52;;;;;;;12.30;4.60;;;;;;;5.70;77.19;100371.38;217417;1259;139445;-70
2024/02/02 13:51:02;;;;;;;11.00;4.80;;;;;;;5.63;76.91;100365.56;216467;1264;142397;-70
2024/02/02 13:56:09;;;;;;;10.30;5.20;;;;;;;5.57;76.94;100368.58;216616;1261;139774;-68
2024/02/02 14:01:20;;;;;;;12.40;5.40;;;;;;;5.46;76.70;100359.55;216599;1263;140063;-70
2024/02/02 14:06:25;;;;;;;11.50;5.20;;;;;;;5.33;77.07;100352.13;216528;1261;139881;-69
2024/02/02 14:11:31;;;;;;;11.90;5.20;;;;;;;5.24;77.48;100337.86;217352;1260;140312;-68
2024/02/02 14:16:36;;;;;;;12.00;4.00;;;;;;;5.19;77.85;100332.08;216675;1260;141158;-70
2024/02/02 14:21:41;;;;;;;20.60;6.20;;;;;;;5.14;77.87;100322.83;217465;1261;141168;-68
2024/02/02 14:26:52;;;;;;;14.10;6.30;;;;;;;5.05;77.89;100319.88;218268;1260;141090;-72
2024/02/02 14:31:58;;;;;;;14.20;6.30;;;;;;;5.00;78.03;100311.84;217419;1260;140118;-71
2024/02/02 14:37:08;;;;;;;8.70;5.00;;;;;;;4.95;78.31;100300.92;216696;1261;161401;-70
2024/02/02 14:42:13;;;;;;;9.50;6.30;;;;;;;4.91;78.81;100288.11;216855;1261;141381;-70
2024/02/02 14:47:19;;;;;;;19.00;6.50;;;;;;;4.88;79.03;100283.84;216970;1259;139562;-70
2024/02/02 14:52:25;;;;;;;10.20;4.60;;;;;;;4.86;79.55;100268.20;216649;1260;140094;-71
2024/02/02 14:57:29;;;;;;;14.00;5.10;;;;;;;4.83;79.60;100249.87;217017;1263;140616;-69
2024/02/02 15:02:34;;;;;;;15.70;6.60;;;;;;;4.76;79.62;100246.71;216781;1257;140191;-68
2024/02/02 15:07:38;;;;;;;13.40;4.70;;;;;;;4.71;80.12;100240.23;217628;1258;233611;-69
2024/02/02 15:12:45;;;;;;;11.40;5.50;;;;;;;4.64;80.05;100221.93;217743;1261;140337;-70
2024/02/02 15:17:50;;;;;;;7.30;4.70;;;;;;;4.58;80.07;100224.23;218035;1258;139882;-69
2024/02/02 15:22:55;;;;;;;18.50;4.90;;;;;;;4.54;80.44;100226.50;217882;1257;140206;-69
2024/02/02 15:27:59;;;;;;;13.80;5.60;;;;;;;4.52;80.46;100220.79;216468;1263;140804;-69
2024/02/02 15:33:05;;;;;;;10.90;6.00;;;;;;;4.49;80.75;100212.67;217666;1257;141113;-70
2024/02/02 15:38:10;;;;;;;5.50;3.70;;;;;;;4.44;80.75;100208.34;217744;1259;141172;-70
2024/02/02 15:43:16;;;;;;;6.70;4.40;;;;;;;4.34;81.00;100202.96;217374;1258;140358;-70
2024/02/02 15:48:21;;;;;;;13.90;6.80;;;;;;;4.28;81.36;100188.52;217398;1262;139885;-69
2024/02/02 15:53:27;;;;;;;15.80;5.30;;;;;;;4.26;81.63;100192.31;216881;1262;140164;-67
2024/02/02 15:58:32;;;;;;;13.60;6.60;;;;;;;4.23;81.75;100184.48;218981;1257;151694;-67
2024/02/02 16:03:36;;;;;;;13.70;7.00;;;;;;;4.19;82.22;100179.95;217907;1258;140292;-71
2024/02/02 16:08:40;;;;;;;19.10;7.90;;;;;;;4.16;82.65;100170.33;217134;1260;139953;-69
2024/02/02 16:13:49;;;;;;;13.20;5.70;;;;;;;4.10;82.75;100159.97;217570;1259;139723;-69
2024/02/02 16:18:55;;;;;;;10.70;6.30;;;;;;;4.04;82.90;100152.78;217010;1260;140367;-70
2024/02/02 16:23:59;;;;;;;9.60;6.50;;;;;;;3.97;83.37;100148.44;216796;1257;141009;-70
2024/02/02 16:29:03;;;;;;;13.90;8.30;;;;;;;3.91;83.41;100148.05;216542;1257;139586;-70
2024/02/02 16:34:07;;;;;;;13.30;7.40;;;;;;;3.84;83.87;100147.96;216951;1260;139926;-68
2024/02/02 16:39:13;;;;;;;6.50;4.80;;;;;;;3.80;84.14;100133.14;217552;1259;140294;-68
2024/02/02 16:44:18;;;;;;;9.10;5.90;;;;;;;3.76;84.24;100116.77;218214;1259;140808;-69
2024/02/02 16:49:22;;;;;;;12.10;5.70;;;;;;;3.73;84.55;100103.73;216799;1262;140549;-68
2024/02/02 16:54:28;;;;;;;10.50;6.10;;;;;;;3.68;84.70;100084.77;215966;1260;793890;-68
2024/02/02 16:59:32;;;;;;;12.70;6.90;;;;;;;3.66;84.99;100086.14;217729;1259;141091;-68
2024/02/02 17:04:37;;;;;;;15.00;7.20;;;;;;;3.61;85.29;100078.81;216861;1263;140354;-68
2024/02/02 17:09:46;;;;;;;16.20;6.80;;;;;;;3.58;85.65;100064.41;218054;1261;140801;-69
2024/02/02 17:14:50;;;;;;;17.10;6.00;;;;;;;3.55;85.65;100054.55;216735;1260;141031;-71
2024/02/02 17:19:53;;;;;;;13.70;6.60;;;;;;;3.58;85.92;100036.99;216377;1259;140107;-66
2024/02/02 17:24:57;;;;;;;18.40;7.50;;;;;;;3.58;86.05;100018.21;216230;1262;140737;-69
2024/02/02 17:30:03;;;;;;;16.50;7.00;;;;;;;3.56;86.37;100010.84;216400;1261;143108;-69
2024/02/02 17:35:08;;;;;;;22.30;8.30;;;;;;;3.52;86.51;100001.14;218822;1259;139824;-69
2024/02/02 17:40:13;;;;;;;16.50;7.20;;;;;;;3.50;86.65;100000.30;216856;1262;139871;-69
2024/02/02 17:45:18;;;;;;;20.40;9.80;;;;;;;3.51;86.77;99990.11;216425;1259;140207;-70
2024/02/02 17:50:22;;;;;;;17.50;8.40;;;;;;;3.52;86.75;99981.23;219548;1259;140092;-67
2024/02/02 17:55:26;;;;;;;15.20;8.90;;;;;;;3.52;86.94;99980.02;219525;1262;140030;-68
2024/02/02 18:00:30;;;;;;;11.80;7.90;;;;;;;3.53;86.85;99971.84;219404;1259;140707;-70
2024/02/02 18:05:33;;;;;;;17.40;9.70;;;;;;;3.55;86.78;99963.85;217389;1259;141188;-66
2024/02/02 18:10:37;;;;;;;17.60;9.80;;;;;;;3.55;86.86;99947.34;216654;1262;139823;-69
2024/02/02 18:15:43;;;;;;;19.60;9.00;;;;;;;3.54;87.11;99929.53;216651;1257;141102;-67
2024/02/02 18:20:48;;;;;;;23.30;12.20;;;;;;;3.52;87.06;99916.56;216704;1259;140609;-69
2024/02/02 18:25:52;;;;;;;12.30;8.50;;;;;;;3.50;86.97;99906.80;217309;1259;139960;-71
2024/02/02 18:30:56;;;;;;;19.00;10.90;;;;;;;3.49;87.12;99899.02;216707;1259;140131;-70
2024/02/02 18:36:01;;;;;;;13.80;8.40;;;;;;;3.48;87.16;99891.41;216823;1259;140780;-72
2024/02/02 18:41:06;;;;;;;21.30;10.30;;;;;;;3.46;87.19;99883.40;217367;1259;140329;-70
2024/02/02 18:46:11;;;;;;;18.60;9.50;;;;;;;3.46;87.09;99875.04;216845;1262;140025;-69
2024/02/02 18:51:17;;;;;;;14.00;8.80;;;;;;;3.45;87.14;99862.27;216663;1263;139670;-67
2024/02/02 18:56:21;;;;;;;16.00;9.50;;;;;;;3.46;87.12;99857.45;216509;1260;140731;-68
2024/02/02 19:01:26;;;;;;;17.40;9.90;;;;;;;3.45;87.30;99855.95;216757;1259;139773;-68
2024/02/02 19:06:38;;;;;;;15.80;8.30;;;;;;;3.45;87.02;99842.80;216818;1259;140704;-68
2024/02/02 19:11:43;;;;;;;13.40;9.80;;;;;;;3.46;87.09;99833.97;217073;1259;140046;-69
2024/02/02 19:16:48;;;;;;;19.90;10.90;;;;;;;3.46;87.03;99832.96;217384;1259;139901;-69
2024/02/02 19:21:54;;;;;;;21.70;10.20;;;;;;;3.47;87.00;99827.38;216817;1259;139987;-69
2024/02/02 19:26:58;;;;;;;17.60;11.70;;;;;;;3.50;86.92;99813.26;217274;1260;140658;-68
2024/02/02 19:32:06;;;;;;;19.10;10.90;;;;;;;3.51;86.85;99803.18;217617;1259;142335;-67
2024/02/02 19:37:10;;;;;;;13.10;9.00;;;;;;;3.52;86.76;99805.71;218498;1259;140137;-69
2024/02/02 19:42:14;;;;;;;12.30;8.20;;;;;;;3.55;86.81;99801.40;217755;1259;140897;-71
2024/02/02 19:47:19;;;;;;;18.70;11.10;;;;;;;3.56;86.66;99788.39;218191;1259;139964;-67
2024/02/02 19:52:26;;;;;;;13.70;8.50;;;;;;;3.55;86.71;99793.13;217979;1259;140164;-67
2024/02/02 19:57:31;;;;;;;15.80;10.40;;;;;;;3.55;86.80;99786.80;218158;1259;140866;-66
2024/02/02 20:02:36;;;;;;;16.00;9.40;;;;;;;3.55;86.79;99776.42;218627;1259;140041;-69
2024/02/02 20:07:44;;;;;;;15.40;9.40;;;;;;;3.57;87.05;99785.11;217516;1259;140507;-68
2024/02/02 20:12:49;;;;;;;13.00;9.30;;;;;;;3.57;87.03;99774.71;217426;1259;140921;-68
2024/02/02 20:17:54;;;;;;;13.40;9.80;;;;;;;3.57;87.30;99775.23;216769;1262;140896;-67
2024/02/02 20:22:59;;;;;;;15.50;8.00;;;;;;;3.55;87.68;99761.09;217617;1259;140167;-66
2024/02/02 20:28:04;;;;;;;8.40;6.60;;;;;;;3.53;87.88;99755.92;216883;1259;140857;-68
2024/02/02 20:33:08;;;;;;;13.40;8.70;;;;;;;3.51;88.23;99738.99;217855;1259;139682;-70
2024/02/02 20:38:12;;;;;;;12.70;7.90;;;;;;;3.50;88.31;99713.04;216948;1259;139620;-69
2024/02/02 20:43:15;;;;;;;27.60;9.40;;;;;;;3.48;88.60;99689.79;217326;1259;140127;-68
2024/02/02 20:48:23;;;;;;;15.00;7.60;;;;;;;3.47;88.77;99694.48;216974;1262;139973;-67
2024/02/02 20:53:28;;;;;;;13.70;8.20;;;;;;;3.49;89.06;99690.36;218082;1257;140751;-68
2024/02/02 20:58:33;;;;;;;16.40;9.20;;;;;;;3.53;89.04;99692.64;217125;1262;141033;-69
2024/02/02 21:03:38;;;;;;;16.90;7.80;;;;;;;3.59;89.02;99679.80;217857;1258;141407;-68
2024/02/02 21:08:43;;;;;;;14.40;7.70;;;;;;;3.66;89.18;99675.74;217023;1262;139822;-70
2024/02/02 21:13:48;;;;;;;11.80;7.30;;;;;;;3.74;89.05;99671.05;218599;1257;140512;-69
2024/02/02 21:18:55;;;;;;;14.00;8.10;;;;;;;3.83;88.70;99668.23;217449;1259;140470;-67
2024/02/02 21:23:59;;;;;;;13.20;8.50;;;;;;;3.91;88.91;99671.66;217531;1258;139552;-68
2024/02/02 21:29:03;;;;;;;16.50;6.60;;;;;;;3.98;88.62;99666.86;217044;1259;140105;-67
2024/02/02 21:34:07;;;;;;;17.80;8.60;;;;;;;4.06;88.63;99659.04;217887;1257;139872;-68
2024/02/02 21:39:11;;;;;;;8.50;5.10;;;;;;;4.13;88.36;99646.91;217271;1257;139914;-68
2024/02/02 21:44:15;;;;;;;11.30;6.50;;;;;;;4.18;88.25;99642.77;216966;1257;139599;-72
2024/02/02 21:49:20;;;;;;;13.20;6.10;;;;;;;4.22;88.18;99639.45;217486;1257;140530;-73
2024/02/02 21:54:24;;;;;;;11.60;6.00;;;;;;;4.27;88.13;99640.02;218446;1259;140035;-71
2024/02/02 21:59:29;;;;;;;13.30;5.80;;;;;;;4.32;87.97;99634.48;218129;1259;141453;-70
2024/02/02 22:04:33;;;;;;;13.20;6.20;;;;;;;4.38;88.00;99627.54;218222;1259;140878;-68
2024/02/02 22:09:37;;;;;;;8.90;6.60;;;;;;;4.45;87.82;99625.38;218293;1259;140212;-69
2024/02/02 22:14:42;;;;;;;11.20;6.80;;;;;;;4.51;87.88;99613.46;217847;1257;141053;-71
2024/02/02 22:19:47;;;;;;;11.90;7.00;;;;;;;4.56;87.49;99599.52;216987;1263;140972;-69
2024/02/02 22:24:51;;;;;;;14.60;7.00;;;;;;;4.59;87.68;99589.48;217554;1258;140485;-71
2024/02/02 22:29:57;;;;;;;10.60;4.40;;;;;;;4.61;87.54;99583.70;217043;1259;139492;-72
2024/02/02 22:35:02;;;;;;;10.40;5.40;;;;;;;4.63;87.29;99575.09;217150;1259;141460;-69
2024/02/02 22:40:08;;;;;;;11.30;7.90;;;;;;;4.65;87.30;99576.93;218038;1262;139909;-72
2024/02/02 22:45:15;;;;;;;8.40;5.10;;;;;;;4.68;87.57;99576.61;216980;1259;139604;-69
2024/02/02 22:50:20;;;;;;;9.30;6.80;;;;;;;4.72;87.50;99580.32;216737;1260;140564;-70
2024/02/02 22:55:25;;;;;;;13.90;6.50;;;;;;;4.76;87.46;99575.70;216822;1259;140515;-68
2024/02/02 23:00:29;;;;;;;11.40;7.30;;;;;;;4.80;87.25;99565.84;217698;1259;140866;-69
2024/02/02 23:05:33;;;;;;;13.50;7.20;;;;;;;4.83;87.16;99557.52;216697;1262;140539;-70
2024/02/02 23:10:37;;;;;;;11.10;5.20;;;;;;;4.86;87.46;99548.46;216812;1261;140342;-68
2024/02/02 23:15:41;;;;;;;10.30;6.10;;;;;;;4.90;87.76;99542.39;217531;1259;140334;-69
2024/02/02 23:20:47;;;;;;;6.90;4.80;;;;;;;4.93;87.27;99531.09;216976;1262;142357;-69
2024/02/02 23:25:51;;;;;;;16.40;5.90;;;;;;;4.95;87.55;99532.02;217430;1260;139791;-73
2024/02/02 23:30:57;;;;;;;9.40;6.60;;;;;;;4.96;87.45;99528.45;216884;1262;140707;-74